Time;durP1;ratioP1;P1;durP2;ratioP2;P2;SDS_P1;SDS_P2;PMS_P1;PMS_P2;Temp;Humidity;BMP_temperature;BMP_pressure;BME280_temperature;BME280_humidity;BME280_pressure;Samples;Min_cycle;Max_cycle;Signal;HPM_P1;HPM_P2
2023/03/07 00:00:25;;;;;;;5.30;3.60;;;;;;;;;;5047371;28;20473;-67
2023/03/07 00:02:50;;;;;;;4.50;3.60;;;;;;;;;;5061795;28;20459;-65
2023/03/07 00:05:16;;;;;;;4.22;3.20;;;;;;;;;;5061347;28;20020;-68
2023/03/07 00:07:41;;;;;;;4.53;3.20;;;;;;;;;;5036644;28;20056;-66
2023/03/07 00:10:07;;;;;;;4.37;3.30;;;;;;;;;;5047250;28;20036;-68
2023/03/07 00:12:32;;;;;;;4.43;3.58;;;;;;;;;;5058551;28;20287;-66
2023/03/07 00:14:57;;;;;;;4.93;3.43;;;;;;;;;;5055748;28;20380;-67
2023/03/07 00:17:22;;;;;;;4.13;3.40;;;;;;;;;;5037382;28;20311;-68
2023/03/07 00:19:47;;;;;;;4.23;3.43;;;;;;;;;;5036320;28;20276;-68
2023/03/07 00:22:13;;;;;;;4.43;3.30;;;;;;;;;;5042703;28;20280;-66
2023/03/07 00:24:38;;;;;;;4.55;3.30;;;;;;;;;;5061996;28;20793;-66
2023/03/07 00:27:03;;;;;;;4.53;3.35;;;;;;;;;;5060124;28;20040;-65
2023/03/07 00:29:29;;;;;;;4.72;3.50;;;;;;;;;;5056375;28;20038;-67
2023/03/07 00:31:54;;;;;;;4.53;3.50;;;;;;;;;;5052583;28;20037;-66
2023/03/07 00:34:19;;;;;;;3.93;3.23;;;;;;;;;;5052754;28;20104;-71
2023/03/07 00:36:44;;;;;;;4.90;3.30;;;;;;;;;;5042089;28;20920;-68
2023/03/07 00:39:10;;;;;;;4.50;3.37;;;;;;;;;;5045105;28;20285;-68
2023/03/07 00:41:35;;;;;;;5.10;3.95;;;;;;;;;;5061115;28;20275;-65
2023/03/07 00:44:00;;;;;;;4.70;3.45;;;;;;;;;;5029689;28;20049;-65
2023/03/07 00:46:25;;;;;;;5.27;3.57;;;;;;;;;;5050349;28;20041;-67
2023/03/07 00:48:51;;;;;;;4.53;3.37;;;;;;;;;;5052852;28;20870;-67
2023/03/07 00:51:16;;;;;;;5.72;3.70;;;;;;;;;;5032427;28;20322;-67
2023/03/07 00:53:42;;;;;;;5.57;3.80;;;;;;;;;;5039277;28;20033;-63
2023/03/07 00:56:14;;;;;;;4.63;3.27;;;;;;;;;;5052271;28;20174;-66
2023/03/07 00:58:39;;;;;;;5.75;3.45;;;;;;;;;;5037672;28;20291;-67
2023/03/07 01:01:05;;;;;;;4.87;3.73;;;;;;;;;;5063921;28;20051;-66
2023/03/07 01:03:31;;;;;;;5.22;3.97;;;;;;;;;;5041060;28;20318;-65
2023/03/07 01:05:56;;;;;;;5.55;3.55;;;;;;;;;;5025545;28;20051;-65
2023/03/07 01:08:21;;;;;;;4.88;3.88;;;;;;;;;;5060149;28;20048;-63
2023/03/07 01:10:49;;;;;;;5.03;3.50;;;;;;;;;;5033322;28;20091;-68
2023/03/07 01:13:15;;;;;;;4.63;3.30;;;;;;;;;;5043729;28;20059;-69
2023/03/07 01:15:40;;;;;;;5.10;3.75;;;;;;;;;;5039600;28;20036;-67
2023/03/07 01:18:06;;;;;;;4.72;3.70;;;;;;;;;;5040403;28;20028;-67
2023/03/07 01:20:31;;;;;;;5.70;3.38;;;;;;;;;;5053546;28;20120;-66
2023/03/07 01:22:57;;;;;;;4.82;3.63;;;;;;;;;;5022431;28;20673;-66
2023/03/07 01:25:22;;;;;;;4.65;3.55;;;;;;;;;;5038418;28;20037;-67
2023/03/07 01:27:47;;;;;;;4.93;3.73;;;;;;;;;;5037729;28;20094;-67
2023/03/07 01:30:12;;;;;;;4.70;3.85;;;;;;;;;;5060091;28;20864;-67
2023/03/07 01:32:38;;;;;;;4.75;3.80;;;;;;;;;;5052204;28;20056;-68
2023/03/07 01:35:03;;;;;;;5.40;3.77;;;;;;;;;;5034948;28;20433;-67
2023/03/07 01:37:28;;;;;;;4.13;3.40;;;;;;;;;;5060453;28;20286;-67
2023/03/07 01:39:54;;;;;;;4.83;3.63;;;;;;;;;;5035200;28;20033;-67
2023/03/07 01:42:19;;;;;;;4.87;3.43;;;;;;;;;;5043322;28;20283;-65
2023/03/07 01:45:00;;;;;;;4.80;3.78;;;;;;;;;;5041370;28;20085;-65
2023/03/07 01:47:25;;;;;;;5.45;3.80;;;;;;;;;;5056539;28;20666;-67
2023/03/07 01:49:51;;;;;;;4.33;3.57;;;;;;;;;;5039345;28;20083;-67
2023/03/07 01:52:32;;;;;;;4.57;3.70;;;;;;;;;;5047350;28;20301;-67
2023/03/07 01:54:58;;;;;;;5.95;4.05;;;;;;;;;;5042488;28;20333;-66
2023/03/07 01:57:25;;;;;;;5.18;3.92;;;;;;;;;;5053445;28;20025;-65
2023/03/07 01:59:52;;;;;;;5.07;3.90;;;;;;;;;;5037661;28;20049;-67
2023/03/07 02:02:18;;;;;;;4.53;3.60;;;;;;;;;;5047473;28;20044;-66
2023/03/07 02:04:43;;;;;;;4.65;3.63;;;;;;;;;;5038546;28;20025;-69
2023/03/07 02:07:09;;;;;;;5.13;3.93;;;;;;;;;;5065091;28;20494;-69
2023/03/07 02:09:34;;;;;;;4.63;3.60;;;;;;;;;;5052041;28;20596;-69
2023/03/07 02:12:00;;;;;;;4.27;3.57;;;;;;;;;;5048363;28;20053;-64
2023/03/07 02:14:25;;;;;;;4.72;3.85;;;;;;;;;;5048618;28;20279;-65
2023/03/07 02:16:51;;;;;;;5.13;3.83;;;;;;;;;;5046980;28;20044;-67
2023/03/07 02:19:45;;;;;;;5.75;4.10;;;;;;;;;;5048568;28;20239;-68
2023/03/07 02:22:11;;;;;;;5.65;3.88;;;;;;;;;;4974654;28;20047;-66
2023/03/07 02:24:36;;;;;;;5.65;4.07;;;;;;;;;;5029608;28;20571;-68
2023/03/07 02:27:02;;;;;;;4.53;3.70;;;;;;;;;;5067676;28;20087;-66
2023/03/07 02:29:27;;;;;;;5.30;4.00;;;;;;;;;;5031353;28;20523;-67
2023/03/07 02:31:52;;;;;;;4.87;3.80;;;;;;;;;;5066465;28;20064;-68
2023/03/07 02:34:27;;;;;;;5.53;3.77;;;;;;;;;;5067058;28;20273;-70
2023/03/07 02:36:57;;;;;;;4.97;3.95;;;;;;;;;;5039493;28;20287;-67
2023/03/07 02:39:23;;;;;;;5.38;3.97;;;;;;;;;;5046632;28;20390;-67
2023/03/07 02:41:49;;;;;;;4.75;3.80;;;;;;;;;;5065051;28;20048;-68
2023/03/07 02:44:15;;;;;;;4.88;3.70;;;;;;;;;;5046597;28;20046;-68
2023/03/07 02:46:40;;;;;;;5.50;4.10;;;;;;;;;;5065217;28;20032;-68
2023/03/07 02:49:05;;;;;;;4.53;3.50;;;;;;;;;;5064775;28;20349;-68
2023/03/07 02:51:30;;;;;;;4.80;3.70;;;;;;;;;;5066839;28;20140;-64
2023/03/07 02:53:56;;;;;;;4.40;3.27;;;;;;;;;;5066474;28;20062;-68
2023/03/07 02:56:21;;;;;;;5.00;3.67;;;;;;;;;;5066883;28;20645;-70
2023/03/07 02:58:46;;;;;;;4.93;3.88;;;;;;;;;;5029191;28;20476;-67
2023/03/07 03:01:11;;;;;;;4.47;3.60;;;;;;;;;;5049610;28;20060;-66
2023/03/07 03:03:37;;;;;;;4.83;3.57;;;;;;;;;;5062152;28;20275;-69
2023/03/07 03:06:02;;;;;;;4.00;3.30;;;;;;;;;;5050542;28;20279;-66
2023/03/07 03:08:27;;;;;;;4.70;3.80;;;;;;;;;;5065947;28;20047;-64
2023/03/07 03:10:53;;;;;;;4.55;3.75;;;;;;;;;;5040462;28;20527;-68
2023/03/07 03:13:19;;;;;;;5.22;3.88;;;;;;;;;;5061190;28;20043;-68
2023/03/07 03:15:44;;;;;;;5.70;3.75;;;;;;;;;;5065734;28;20024;-69
2023/03/07 03:18:10;;;;;;;5.23;3.97;;;;;;;;;;5027894;28;20037;-67
2023/03/07 03:20:37;;;;;;;4.18;3.40;;;;;;;;;;5047602;28;20363;-71
2023/03/07 03:23:03;;;;;;;4.97;3.97;;;;;;;;;;5048514;28;20086;-69
2023/03/07 03:25:28;;;;;;;5.40;4.00;;;;;;;;;;5049312;28;20409;-69
2023/03/07 03:27:54;;;;;;;4.17;3.40;;;;;;;;;;5032795;28;20037;-69
2023/03/07 03:30:19;;;;;;;5.18;3.80;;;;;;;;;;5047815;28;20512;-70
2023/03/07 03:32:45;;;;;;;5.05;3.55;;;;;;;;;;5048562;28;20037;-70
2023/03/07 03:35:11;;;;;;;4.35;3.28;;;;;;;;;;5059558;28;20098;-69
2023/03/07 03:37:36;;;;;;;4.93;3.90;;;;;;;;;;5029738;28;20085;-72
2023/03/07 03:40:04;;;;;;;5.90;3.95;;;;;;;;;;5048970;28;20429;-68
2023/03/07 03:42:29;;;;;;;6.10;3.80;;;;;;;;;;5041367;28;20029;-73
2023/03/07 03:44:54;;;;;;;4.37;3.40;;;;;;;;;;5033018;28;20094;-68
2023/03/07 03:47:19;;;;;;;5.97;3.77;;;;;;;;;;5050184;28;20267;-69
2023/03/07 03:49:45;;;;;;;5.60;3.90;;;;;;;;;;5032733;28;20802;-70
2023/03/07 03:52:10;;;;;;;5.15;3.78;;;;;;;;;;5036359;28;20340;-69
2023/03/07 03:54:35;;;;;;;4.40;3.55;;;;;;;;;;5041609;28;20043;-68
2023/03/07 03:57:00;;;;;;;4.83;3.60;;;;;;;;;;5035858;28;20053;-68
2023/03/07 03:59:26;;;;;;;4.87;3.63;;;;;;;;;;5036676;28;20266;-70
2023/03/07 04:01:53;;;;;;;4.30;3.30;;;;;;;;;;5039695;28;20291;-66
2023/03/07 04:04:19;;;;;;;4.93;3.55;;;;;;;;;;5038199;28;20029;-69
2023/03/07 04:06:44;;;;;;;5.40;3.17;;;;;;;;;;5040281;28;20096;-74
2023/03/07 04:09:09;;;;;;;5.25;3.60;;;;;;;;;;5021645;28;20579;-67
2023/03/07 04:11:35;;;;;;;4.90;3.43;;;;;;;;;;5041826;28;20063;-67
2023/03/07 04:14:00;;;;;;;4.88;3.53;;;;;;;;;;5057538;28;20127;-72
2023/03/07 04:16:26;;;;;;;4.70;3.60;;;;;;;;;;5055468;28;20040;-68
2023/03/07 04:18:51;;;;;;;4.83;3.67;;;;;;;;;;5040669;28;20048;-68
2023/03/07 04:21:16;;;;;;;4.88;3.60;;;;;;;;;;5057077;28;20283;-67
2023/03/07 04:23:41;;;;;;;4.43;3.40;;;;;;;;;;5041877;28;20060;-67
2023/03/07 04:26:07;;;;;;;4.43;3.30;;;;;;;;;;5055868;28;20537;-65
2023/03/07 04:31:08;;;;;;;4.82;3.30;;;;;;;;;;5042823;28;20041;-72
2023/03/07 04:33:33;;;;;;;4.07;3.40;;;;;;;;;;5056782;28;20028;-67
2023/03/07 04:35:59;;;;;;;4.38;3.40;;;;;;;;;;5055457;28;20052;-69
2023/03/07 04:38:24;;;;;;;4.68;3.50;;;;;;;;;;5056306;28;20063;-71
2023/03/07 04:40:49;;;;;;;4.17;3.20;;;;;;;;;;5052459;28;20036;-67
2023/03/07 04:43:14;;;;;;;4.57;3.38;;;;;;;;;;5023338;28;20580;-72
2023/03/07 04:45:40;;;;;;;4.72;3.47;;;;;;;;;;5022951;28;20035;-68
2023/03/07 04:48:05;;;;;;;5.32;3.60;;;;;;;;;;5038199;28;20033;-67
2023/03/07 04:50:30;;;;;;;4.32;3.05;;;;;;;;;;5057399;28;21646;-65
2023/03/07 04:52:56;;;;;;;4.03;3.25;;;;;;;;;;5056476;28;20084;-74
2023/03/07 04:55:21;;;;;;;4.45;3.15;;;;;;;;;;5025472;28;20037;-69
2023/03/07 04:57:46;;;;;;;4.07;3.07;;;;;;;;;;5055581;28;20039;-68
2023/03/07 05:00:12;;;;;;;4.50;3.00;;;;;;;;;;5055518;28;20323;-65
2023/03/07 05:02:37;;;;;;;5.70;3.35;;;;;;;;;;5026360;28;20036;-66
2023/03/07 05:05:03;;;;;;;4.23;3.23;;;;;;;;;;5055653;28;20040;-69
2023/03/07 05:07:31;;;;;;;4.53;3.42;;;;;;;;;;5054926;28;20836;-71
2023/03/07 05:09:56;;;;;;;4.15;3.60;;;;;;;;;;5055026;28;20098;-67
2023/03/07 05:12:21;;;;;;;4.00;3.37;;;;;;;;;;5055056;28;20572;-67
2023/03/07 05:14:47;;;;;;;4.00;2.95;;;;;;;;;;5054531;28;20532;-69
2023/03/07 05:17:12;;;;;;;3.87;3.20;;;;;;;;;;5041073;28;20719;-64
2023/03/07 05:19:37;;;;;;;4.87;3.77;;;;;;;;;;5042958;28;20135;-65
2023/03/07 05:22:03;;;;;;;5.77;3.57;;;;;;;;;;5055424;28;20040;-65
2023/03/07 05:24:28;;;;;;;4.50;3.33;;;;;;;;;;5054617;28;20143;-70
2023/03/07 05:26:53;;;;;;;3.60;3.07;;;;;;;;;;5053675;28;20119;-69
2023/03/07 05:29:18;;;;;;;3.87;3.30;;;;;;;;;;5053547;28;20291;-67
2023/03/07 05:31:43;;;;;;;3.95;3.17;;;;;;;;;;5053459;28;20423;-64
2023/03/07 05:34:09;;;;;;;4.23;3.40;;;;;;;;;;5053459;28;20040;-66
2023/03/07 05:36:35;;;;;;;4.30;3.08;;;;;;;;;;5053398;28;20291;-67
2023/03/07 05:39:00;;;;;;;4.03;3.17;;;;;;;;;;5055267;28;20083;-66
2023/03/07 05:41:25;;;;;;;4.60;3.37;;;;;;;;;;5054898;28;20055;-70
2023/03/07 05:43:50;;;;;;;5.03;3.27;;;;;;;;;;5026107;28;20304;-67
2023/03/07 05:46:16;;;;;;;5.47;3.05;;;;;;;;;;5052061;28;20997;-65
2023/03/07 05:48:41;;;;;;;4.03;2.90;;;;;;;;;;5053910;28;20373;-66
2023/03/07 05:51:06;;;;;;;4.07;2.80;;;;;;;;;;5053847;28;20407;-66
2023/03/07 05:53:31;;;;;;;3.80;3.10;;;;;;;;;;5055354;28;20407;-65
2023/03/07 05:55:57;;;;;;;3.47;2.85;;;;;;;;;;5057079;28;20440;-66
2023/03/07 05:58:22;;;;;;;3.87;3.10;;;;;;;;;;5054482;28;20839;-72
2023/03/07 06:00:48;;;;;;;4.10;3.13;;;;;;;;;;5051638;28;20429;-67
2023/03/07 06:03:13;;;;;;;3.97;3.30;;;;;;;;;;5053391;28;20025;-64
2023/03/07 06:05:38;;;;;;;4.88;3.25;;;;;;;;;;5031933;28;20041;-63
2023/03/07 06:08:04;;;;;;;3.95;3.38;;;;;;;;;;5053624;28;20604;-69
2023/03/07 06:10:29;;;;;;;4.55;3.25;;;;;;;;;;5055126;28;20036;-70
2023/03/07 06:12:54;;;;;;;4.40;3.27;;;;;;;;;;5040621;28;22276;-72
2023/03/07 06:15:20;;;;;;;3.92;3.00;;;;;;;;;;5056769;28;21138;-69
2023/03/07 06:17:45;;;;;;;4.38;3.17;;;;;;;;;;5052425;28;20033;-71
2023/03/07 06:20:11;;;;;;;4.53;3.30;;;;;;;;;;5050863;28;20056;-69
2023/03/07 06:22:39;;;;;;;3.47;2.80;;;;;;;;;;5038825;28;20841;-67
2023/03/07 06:25:05;;;;;;;4.30;3.30;;;;;;;;;;5052910;28;20044;-68
2023/03/07 06:27:31;;;;;;;4.13;3.25;;;;;;;;;;5052270;28;20438;-71
2023/03/07 06:29:56;;;;;;;3.83;2.75;;;;;;;;;;5052522;28;20032;-66
2023/03/07 06:32:21;;;;;;;4.05;2.78;;;;;;;;;;5052185;28;20142;-64
2023/03/07 06:34:47;;;;;;;4.47;2.83;;;;;;;;;;5051336;28;20096;-63
2023/03/07 06:37:12;;;;;;;3.40;2.40;;;;;;;;;;5058360;28;20032;-70
2023/03/07 06:39:37;;;;;;;4.10;2.90;;;;;;;;;;5045901;28;20043;-67
2023/03/07 06:42:03;;;;;;;4.95;3.05;;;;;;;;;;5056106;28;20068;-72
2023/03/07 06:44:28;;;;;;;4.22;3.00;;;;;;;;;;5058013;28;20090;-66
2023/03/07 06:46:53;;;;;;;3.92;2.80;;;;;;;;;;5023288;28;20041;-73
2023/03/07 06:49:19;;;;;;;4.53;2.77;;;;;;;;;;5014561;28;20098;-74
2023/03/07 06:51:44;;;;;;;4.10;2.90;;;;;;;;;;5027914;28;20295;-69
2023/03/07 06:54:09;;;;;;;4.70;2.80;;;;;;;;;;5048065;28;20047;-67
2023/03/07 06:56:34;;;;;;;4.10;2.97;;;;;;;;;;5050891;28;20083;-64
2023/03/07 06:59:00;;;;;;;4.75;3.35;;;;;;;;;;5029978;28;20040;-71
2023/03/07 07:01:25;;;;;;;4.50;3.03;;;;;;;;;;5031885;28;20036;-69
2023/03/07 07:03:50;;;;;;;4.47;3.20;;;;;;;;;;5040365;28;20064;-69
2023/03/07 07:06:16;;;;;;;4.20;2.92;;;;;;;;;;5034049;28;20072;-68
2023/03/07 07:08:41;;;;;;;3.63;2.80;;;;;;;;;;5037396;28;20029;-71
2023/03/07 07:11:06;;;;;;;4.23;3.10;;;;;;;;;;5056975;28;20147;-67
2023/03/07 07:13:31;;;;;;;4.57;3.15;;;;;;;;;;5051711;28;20380;-69
2023/03/07 07:16:02;;;;;;;3.53;2.75;;;;;;;;;;5059160;28;20393;-71
2023/03/07 07:18:27;;;;;;;3.92;3.05;;;;;;;;;;5047156;28;20586;-70
2023/03/07 07:20:53;;;;;;;3.47;2.90;;;;;;;;;;5056364;28;20080;-68
2023/03/07 07:23:19;;;;;;;3.97;2.92;;;;;;;;;;5057716;28;20274;-70
2023/03/07 07:25:44;;;;;;;3.80;3.00;;;;;;;;;;5052819;28;20025;-74
2023/03/07 07:28:10;;;;;;;3.78;2.92;;;;;;;;;;5045776;28;20170;-71
2023/03/07 07:30:35;;;;;;;4.45;3.03;;;;;;;;;;5040720;28;20038;-69
2023/03/07 07:33:00;;;;;;;4.73;3.40;;;;;;;;;;5048032;28;20037;-68
2023/03/07 07:35:25;;;;;;;4.10;3.07;;;;;;;;;;5049618;28;20371;-71
2023/03/07 07:37:50;;;;;;;4.50;3.20;;;;;;;;;;5055711;28;20108;-67
2023/03/07 07:40:16;;;;;;;3.70;2.90;;;;;;;;;;5056411;28;20652;-68
2023/03/07 07:42:42;;;;;;;4.10;3.05;;;;;;;;;;5043727;28;20527;-67
2023/03/07 07:45:07;;;;;;;4.47;3.10;;;;;;;;;;5048951;28;20044;-68
2023/03/07 07:47:32;;;;;;;3.63;2.70;;;;;;;;;;5047330;28;20119;-66
2023/03/07 07:49:58;;;;;;;4.10;2.90;;;;;;;;;;5048292;28;20040;-68
2023/03/07 07:52:23;;;;;;;4.10;2.80;;;;;;;;;;5050015;28;20862;-73
2023/03/07 07:54:48;;;;;;;3.67;3.00;;;;;;;;;;5053443;28;20111;-73
2023/03/07 07:57:14;;;;;;;4.00;3.10;;;;;;;;;;5064727;28;20467;-71
2023/03/07 07:59:39;;;;;;;4.10;3.20;;;;;;;;;;5024489;28;20129;-71
2023/03/07 08:02:04;;;;;;;4.80;2.73;;;;;;;;;;5066488;28;20036;-70
2023/03/07 08:04:29;;;;;;;4.03;3.10;;;;;;;;;;5046040;28;20329;-70
2023/03/07 08:06:55;;;;;;;4.28;3.00;;;;;;;;;;5044301;28;20811;-71
2023/03/07 08:09:20;;;;;;;4.33;3.00;;;;;;;;;;5066084;28;20516;-67
2023/03/07 08:11:45;;;;;;;4.90;2.90;;;;;;;;;;5040055;28;20690;-68
2023/03/07 08:14:10;;;;;;;3.75;2.75;;;;;;;;;;5061515;28;20295;-65
2023/03/07 08:16:36;;;;;;;4.23;3.10;;;;;;;;;;5060973;28;20037;-65
2023/03/07 08:19:01;;;;;;;4.53;3.30;;;;;;;;;;5051532;28;20506;-65
2023/03/07 08:21:26;;;;;;;5.10;3.20;;;;;;;;;;5066365;28;20473;-67
2023/03/07 08:23:52;;;;;;;3.60;2.78;;;;;;;;;;5029660;28;20444;-66
2023/03/07 08:26:17;;;;;;;5.05;3.33;;;;;;;;;;5044505;28;20040;-64
2023/03/07 08:28:42;;;;;;;4.72;3.50;;;;;;;;;;5064800;28;20492;-63
2023/03/07 08:31:11;;;;;;;4.05;2.95;;;;;;;;;;5068977;28;20051;-70
2023/03/07 08:33:37;;;;;;;4.07;2.90;;;;;;;;;;5051404;28;20029;-69
2023/03/07 08:36:02;;;;;;;4.93;3.33;;;;;;;;;;5056575;28;20169;-70
2023/03/07 08:38:27;;;;;;;4.43;2.88;;;;;;;;;;5031670;28;20071;-64
2023/03/07 08:40:53;;;;;;;4.70;3.50;;;;;;;;;;5045952;28;20516;-66
2023/03/07 08:43:18;;;;;;;4.00;3.00;;;;;;;;;;5058714;28;20123;-63
2023/03/07 08:45:43;;;;;;;4.93;2.80;;;;;;;;;;5060928;28;20541;-67
2023/03/07 08:48:09;;;;;;;4.03;2.83;;;;;;;;;;5050529;28;20377;-67
2023/03/07 08:50:34;;;;;;;4.28;3.05;;;;;;;;;;5068873;28;20416;-67
2023/03/07 08:52:59;;;;;;;4.37;3.33;;;;;;;;;;5068900;28;20036;-67
2023/03/07 08:55:25;;;;;;;4.30;3.30;;;;;;;;;;5067405;28;20284;-67
2023/03/07 08:57:50;;;;;;;4.93;3.27;;;;;;;;;;5061900;28;20295;-67
2023/03/07 09:00:16;;;;;;;5.80;3.28;;;;;;;;;;5063760;28;20040;-66
2023/03/07 09:02:42;;;;;;;4.75;3.33;;;;;;;;;;5049342;28;20144;-68
2023/03/07 09:05:07;;;;;;;3.83;2.92;;;;;;;;;;5066820;28;20563;-66
2023/03/07 09:07:32;;;;;;;5.05;3.20;;;;;;;;;;5067458;28;20409;-66
2023/03/07 09:09:57;;;;;;;4.73;3.63;;;;;;;;;;5067442;28;20420;-68
2023/03/07 09:12:23;;;;;;;4.13;3.33;;;;;;;;;;5068363;28;20379;-67
2023/03/07 09:14:48;;;;;;;4.00;3.07;;;;;;;;;;5032406;28;20276;-69
2023/03/07 09:17:13;;;;;;;4.30;3.13;;;;;;;;;;5058764;28;20817;-71
2023/03/07 09:19:38;;;;;;;4.50;3.00;;;;;;;;;;5066877;28;20465;-66
2023/03/07 09:22:04;;;;;;;4.57;3.20;;;;;;;;;;5066632;28;20134;-68
2023/03/07 09:24:29;;;;;;;4.53;2.97;;;;;;;;;;5048231;28;20285;-66
2023/03/07 09:26:54;;;;;;;3.83;3.08;;;;;;;;;;5045158;28;20047;-67
2023/03/07 09:29:19;;;;;;;3.87;2.90;;;;;;;;;;5028200;28;20123;-69
2023/03/07 09:31:45;;;;;;;4.80;3.37;;;;;;;;;;5044137;28;20131;-64
2023/03/07 09:34:11;;;;;;;4.20;3.22;;;;;;;;;;5040427;28;20263;-66
2023/03/07 09:36:36;;;;;;;4.45;3.28;;;;;;;;;;5048290;28;20028;-65
2023/03/07 09:39:02;;;;;;;3.97;2.97;;;;;;;;;;5026057;28;20028;-68
2023/03/07 09:41:45;;;;;;;5.03;3.55;;;;;;;;;;5064300;28;20477;-69
2023/03/07 09:44:29;;;;;;;5.03;3.50;;;;;;;;;;5062449;28;20572;-71
2023/03/07 09:47:13;;;;;;;3.92;3.05;;;;;;;;;;5046929;28;20452;-68
2023/03/07 09:49:48;;;;;;;3.50;2.75;;;;;;;;;;5042030;28;20035;-69
2023/03/07 09:52:15;;;;;;;4.15;3.03;;;;;;;;;;5059168;28;20040;-68
2023/03/07 09:54:49;;;;;;;4.05;2.90;;;;;;;;;;5045392;28;20429;-70
2023/03/07 09:57:16;;;;;;;4.63;3.00;;;;;;;;;;5053561;28;20039;-69
2023/03/07 09:59:42;;;;;;;4.75;2.92;;;;;;;;;;5054370;28;20037;-72
2023/03/07 10:02:18;;;;;;;3.38;2.47;;;;;;;;;;5049219;28;20094;-71
2023/03/07 10:04:48;;;;;;;5.57;3.00;;;;;;;;;;5039857;28;20041;-71
2023/03/07 10:07:14;;;;;;;4.72;3.33;;;;;;;;;;5049460;28;20052;-65
2023/03/07 10:09:39;;;;;;;6.28;3.53;;;;;;;;;;5039317;28;20032;-73
2023/03/07 10:12:08;;;;;;;4.17;3.13;;;;;;;;;;5053585;28;20075;-71
2023/03/07 10:14:36;;;;;;;5.78;3.35;;;;;;;;;;5047541;28;20981;-66
2023/03/07 10:17:01;;;;;;;4.03;3.03;;;;;;;;;;5066650;28;20029;-72
2023/03/07 10:19:30;;;;;;;3.90;2.90;;;;;;;;;;5067832;28;20071;-70
2023/03/07 10:21:58;;;;;;;6.50;3.38;;;;;;;;;;5064238;28;20290;-65
2023/03/07 10:24:32;;;;;;;7.53;3.50;;;;;;;;;;5046773;28;20041;-68
2023/03/07 10:27:05;;;;;;;4.15;3.05;;;;;;;;;;5055183;28;20044;-71
2023/03/07 10:29:49;;;;;;;4.32;3.05;;;;;;;;;;5063504;28;20052;-70
2023/03/07 10:32:33;;;;;;;5.03;3.42;;;;;;;;;;5043053;28;20064;-73
2023/03/07 10:35:11;;;;;;;6.07;3.20;;;;;;;;;;5047828;28;20052;-66
2023/03/07 10:37:51;;;;;;;4.03;3.00;;;;;;;;;;5066886;28;20094;-71
2023/03/07 10:40:22;;;;;;;4.95;3.08;;;;;;;;;;5055589;28;20017;-73
2023/03/07 10:42:47;;;;;;;4.13;3.10;;;;;;;;;;5064504;28;20035;-67
2023/03/07 10:45:13;;;;;;;4.93;3.25;;;;;;;;;;5038037;28;20170;-67
2023/03/07 10:47:38;;;;;;;5.30;3.08;;;;;;;;;;5048968;28;20573;-67
2023/03/07 10:50:15;;;;;;;5.97;3.05;;;;;;;;;;5065380;28;20040;-67
2023/03/07 10:52:47;;;;;;;4.63;2.78;;;;;;;;;;5045551;28;20044;-69
2023/03/07 10:55:31;;;;;;;4.35;2.95;;;;;;;;;;5061250;28;20025;-66
2023/03/07 10:58:14;;;;;;;4.50;3.10;;;;;;;;;;5066418;28;20051;-64
2023/03/07 11:00:40;;;;;;;4.18;2.70;;;;;;;;;;5065499;28;20811;-69
2023/03/07 11:03:18;;;;;;;6.50;3.45;;;;;;;;;;5070847;28;20028;-70
2023/03/07 11:05:46;;;;;;;4.32;2.80;;;;;;;;;;5051056;28;20036;-67
2023/03/07 11:08:25;;;;;;;5.38;2.97;;;;;;;;;;5022220;28;20049;-67
2023/03/07 11:10:50;;;;;;;4.20;3.03;;;;;;;;;;5033729;28;20118;-69
2023/03/07 11:13:19;;;;;;;4.27;3.07;;;;;;;;;;5032786;28;20044;-68
2023/03/07 11:15:44;;;;;;;3.67;2.80;;;;;;;;;;5065220;28;20271;-66
2023/03/07 11:18:29;;;;;;;4.35;3.30;;;;;;;;;;5044836;28;20032;-70
2023/03/07 11:20:54;;;;;;;4.53;3.05;;;;;;;;;;5061081;28;20048;-68
2023/03/07 11:23:22;;;;;;;4.40;3.25;;;;;;;;;;5030645;28;20037;-68
2023/03/07 11:25:48;;;;;;;4.97;3.10;;;;;;;;;;5048592;28;20041;-67
2023/03/07 11:28:22;;;;;;;4.75;3.17;;;;;;;;;;5066647;28;20040;-63
2023/03/07 11:30:49;;;;;;;4.60;3.05;;;;;;;;;;5064008;28;20040;-70
2023/03/07 11:33:14;;;;;;;4.35;3.13;;;;;;;;;;5028519;28;20028;-74
2023/03/07 11:35:42;;;;;;;4.43;2.83;;;;;;;;;;5063553;28;20481;-72
2023/03/07 11:38:28;;;;;;;4.03;3.00;;;;;;;;;;5032486;28;20305;-65
2023/03/07 11:41:02;;;;;;;4.25;2.88;;;;;;;;;;5047332;28;20185;-67
2023/03/07 11:43:39;;;;;;;4.30;3.00;;;;;;;;;;5052967;28;20048;-67
2023/03/07 11:46:04;;;;;;;3.88;2.85;;;;;;;;;;5055705;28;20044;-65
2023/03/07 11:48:33;;;;;;;4.13;3.00;;;;;;;;;;5061590;28;20452;-73
2023/03/07 11:50:58;;;;;;;3.65;2.75;;;;;;;;;;5066661;28;20041;-69
2023/03/07 11:53:26;;;;;;;3.42;2.85;;;;;;;;;;5041789;28;20044;-70
2023/03/07 11:55:54;;;;;;;4.35;2.90;;;;;;;;;;5067110;28;20024;-69
2023/03/07 11:58:29;;;;;;;3.83;2.80;;;;;;;;;;5068034;28;20450;-62
2023/03/07 12:01:00;;;;;;;4.43;2.97;;;;;;;;;;5067932;28;20048;-74
2023/03/07 12:03:44;;;;;;;3.85;2.97;;;;;;;;;;5047306;28;20044;-71
2023/03/07 12:06:09;;;;;;;4.20;3.03;;;;;;;;;;5070410;28;20183;-72
2023/03/07 12:08:52;;;;;;;4.13;3.10;;;;;;;;;;5068646;28;20519;-73
2023/03/07 12:11:18;;;;;;;3.58;2.83;;;;;;;;;;5068059;28;20052;-65
2023/03/07 12:13:58;;;;;;;3.70;2.80;;;;;;;;;;5061059;28;20047;-67
2023/03/07 12:16:26;;;;;;;4.75;3.10;;;;;;;;;;5067210;28;20043;-72
2023/03/07 12:19:10;;;;;;;4.13;2.97;;;;;;;;;;5049234;28;20044;-71
2023/03/07 12:21:39;;;;;;;3.38;2.72;;;;;;;;;;5070386;28;20188;-63
2023/03/07 12:24:06;;;;;;;3.83;3.03;;;;;;;;;;5051151;28;20588;-69
2023/03/07 12:26:36;;;;;;;5.28;3.58;;;;;;;;;;5046540;28;20048;-68
2023/03/07 12:29:20;;;;;;;5.03;2.88;;;;;;;;;;5036240;28;20423;-71
2023/03/07 12:31:46;;;;;;;4.50;2.90;;;;;;;;;;5070043;28;20067;-70
2023/03/07 12:34:29;;;;;;;3.35;2.75;;;;;;;;;;5062870;28;20033;-64
2023/03/07 12:36:59;;;;;;;2.53;1.67;;;;;;;;;;5054865;28;20049;-64
2023/03/07 12:39:44;;;;;;;1.60;1.15;;;;;;;;;;5040353;28;20044;-66
2023/03/07 12:42:24;;;;;;;2.33;1.10;;;;;;;;;;5062916;28;20041;-66
2023/03/07 12:44:51;;;;;;;2.35;1.17;;;;;;;;;;5061184;28;20071;-67
2023/03/07 12:47:40;;;;;;;2.38;1.38;;;;;;;;;;5054540;28;20051;-64
2023/03/07 12:50:06;;;;;;;2.72;1.20;;;;;;;;;;5037327;28;20059;-64
2023/03/07 12:52:37;;;;;;;1.58;0.90;;;;;;;;;;5061509;28;20505;-65
2023/03/07 12:55:17;;;;;;;1.65;0.90;;;;;;;;;;5067852;28;20037;-65
2023/03/07 12:57:43;;;;;;;1.55;0.80;;;;;;;;;;5049349;28;20526;-65
2023/03/07 13:00:10;;;;;;;2.42;1.13;;;;;;;;;;5035843;28;20135;-64
2023/03/07 13:02:43;;;;;;;2.03;1.00;;;;;;;;;;5067825;28;20047;-63
2023/03/07 13:05:14;;;;;;;1.73;1.00;;;;;;;;;;5050664;28;20033;-66
2023/03/07 13:07:39;;;;;;;2.05;1.10;;;;;;;;;;5032889;28;20085;-64
2023/03/07 13:10:05;;;;;;;2.10;0.90;;;;;;;;;;5066019;28;20103;-64
2023/03/07 13:12:31;;;;;;;1.73;0.90;;;;;;;;;;5049354;28;20060;-66
2023/03/07 13:15:02;;;;;;;1.70;0.90;;;;;;;;;;5032645;28;20016;-64
2023/03/07 13:17:34;;;;;;;3.20;0.90;;;;;;;;;;5066272;28;20129;-64
2023/03/07 13:19:59;;;;;;;2.22;1.20;;;;;;;;;;5066780;28;20040;-64
2023/03/07 13:22:24;;;;;;;1.83;0.97;;;;;;;;;;5066885;28;20409;-63
2023/03/07 13:24:53;;;;;;;2.07;1.30;;;;;;;;;;5059067;28;20579;-65
2023/03/07 13:27:21;;;;;;;2.88;1.10;;;;;;;;;;5032220;28;20035;-64
2023/03/07 13:30:06;;;;;;;1.63;0.90;;;;;;;;;;5062233;28;20078;-64
2023/03/07 13:32:49;;;;;;;2.60;1.15;;;;;;;;;;5043880;28;20040;-65
2023/03/07 13:35:27;;;;;;;3.80;1.10;;;;;;;;;;5067311;28;20082;-68
2023/03/07 13:37:58;;;;;;;3.22;1.10;;;;;;;;;;5064952;28;20056;-64
2023/03/07 13:40:35;;;;;;;2.50;1.02;;;;;;;;;;5063621;28;20048;-66
2023/03/07 13:43:21;;;;;;;2.60;0.90;;;;;;;;;;5061399;28;20036;-68
2023/03/07 13:45:51;;;;;;;2.65;1.08;;;;;;;;;;5048969;28;20040;-66
2023/03/07 13:48:25;;;;;;;2.03;1.00;;;;;;;;;;5067226;28;20040;-69
2023/03/07 13:50:51;;;;;;;3.35;1.15;;;;;;;;;;5060337;28;20547;-66
2023/03/07 13:53:16;;;;;;;1.90;1.37;;;;;;;;;;5048325;28;20072;-67
2023/03/07 13:55:45;;;;;;;2.30;1.20;;;;;;;;;;5064806;28;20548;-67
2023/03/07 13:58:33;;;;;;;3.50;1.20;;;;;;;;;;5033875;28;20838;-65
2023/03/07 14:01:17;;;;;;;4.72;1.30;;;;;;;;;;5053770;28;20595;-67
2023/03/07 14:03:46;;;;;;;2.60;1.10;;;;;;;;;;5063678;28;20044;-65
2023/03/07 14:06:12;;;;;;;2.20;1.20;;;;;;;;;;5014273;28;20061;-63
2023/03/07 14:08:38;;;;;;;3.25;1.40;;;;;;;;;;5046933;28;20032;-65
2023/03/07 14:11:03;;;;;;;2.23;0.90;;;;;;;;;;5065641;28;20083;-66
2023/03/07 14:13:34;;;;;;;4.93;1.10;;;;;;;;;;5046574;28;20314;-67
2023/03/07 14:16:06;;;;;;;2.42;1.20;;;;;;;;;;5048335;28;20113;-67
2023/03/07 14:18:50;;;;;;;2.22;1.13;;;;;;;;;;5052663;28;20033;-68
2023/03/07 14:21:21;;;;;;;2.22;1.10;;;;;;;;;;5046491;28;20041;-65
2023/03/07 14:24:05;;;;;;;2.67;1.10;;;;;;;;;;5066035;28;20078;-66
2023/03/07 14:26:32;;;;;;;4.13;1.40;;;;;;;;;;5063596;28;20032;-66
2023/03/07 14:29:00;;;;;;;2.22;1.20;;;;;;;;;;5045298;28;20030;-65
2023/03/07 14:31:29;;;;;;;2.92;1.30;;;;;;;;;;5061192;28;20052;-68
2023/03/07 14:33:55;;;;;;;3.00;1.05;;;;;;;;;;5058377;28;20723;-65
2023/03/07 14:36:21;;;;;;;3.28;1.30;;;;;;;;;;5057604;28;20033;-65
2023/03/07 14:38:47;;;;;;;2.80;1.20;;;;;;;;;;5046813;28;20040;-63
2023/03/07 14:41:28;;;;;;;1.98;1.00;;;;;;;;;;5059882;28;20044;-66
2023/03/07 14:43:55;;;;;;;2.38;1.10;;;;;;;;;;5057819;28;20544;-65
2023/03/07 14:46:27;;;;;;;3.97;1.40;;;;;;;;;;5063016;28;20066;-69
2023/03/07 14:48:52;;;;;;;3.22;1.30;;;;;;;;;;5041718;28;20033;-67